Time;durP1;ratioP1;P1;durP2;ratioP2;P2;SDS_P1;SDS_P2;PMS_P1;PMS_P2;Temp;Humidity;BMP_temperature;BMP_pressure;BME280_temperature;BME280_humidity;BME280_pressure;Samples;Min_cycle;Max_cycle;Signal;HPM_P1;HPM_P2
2024/01/17 00:00:03;;;;;;;;;;;0.70;99.90;;;;;;5066939;28;20013;-76
2024/01/17 00:02:29;;;;;;;;;;;0.60;99.90;;;;;;5069704;28;20022;-76
2024/01/17 00:04:54;;;;;;;;;;;0.60;99.90;;;;;;5051031;28;20446;-75
2024/01/17 00:07:24;;;;;;;;;;;1.00;99.90;;;;;;5052810;28;19920;-75
2024/01/17 00:09:50;;;;;;;;;;;0.60;99.90;;;;;;5068176;28;20172;-75
2024/01/17 00:12:15;;;;;;;;;;;0.50;99.90;;;;;;5069347;28;20015;-75
2024/01/17 00:14:41;;;;;;;;;;;0.50;99.90;;;;;;5050268;28;20302;-75
2024/01/17 00:17:08;;;;;;;;;;;0.50;99.90;;;;;;5047510;28;19967;-75
2024/01/17 00:19:34;;;;;;;;;;;0.50;99.90;;;;;;5039396;28;19924;-75
2024/01/17 00:22:00;;;;;;;;;;;0.50;99.90;;;;;;5043746;28;19921;-76
2024/01/17 00:24:26;;;;;;;;;;;0.40;99.90;;;;;;5033900;28;19959;-77
2024/01/17 00:26:51;;;;;;;;;;;0.40;99.90;;;;;;5043046;28;19921;-75
2024/01/17 00:29:17;;;;;;;;;;;0.40;99.90;;;;;;5048342;28;20291;-76
2024/01/17 00:31:43;;;;;;;;;;;0.30;99.90;;;;;;5048888;28;20455;-75
2024/01/17 00:34:08;;;;;;;;;;;1.50;99.90;;;;;;5046211;28;20019;-76
2024/01/17 00:36:34;;;;;;;;;;;0.30;99.90;;;;;;5048940;28;19920;-76
2024/01/17 00:38:59;;;;;;;;;;;0.30;99.90;;;;;;5043487;28;19921;-76
2024/01/17 00:41:25;;;;;;;;;;;0.30;99.90;;;;;;5034361;28;20115;-75
2024/01/17 00:43:51;;;;;;;;;;;0.30;99.90;;;;;;5047605;28;19933;-75
2024/01/17 00:46:17;;;;;;;;;;;0.30;99.90;;;;;;5049566;28;19947;-76
2024/01/17 00:48:42;;;;;;;;;;;0.30;99.90;;;;;;5053451;28;19920;-75
2024/01/17 00:51:08;;;;;;;;;;;0.30;99.90;;;;;;5052239;28;20019;-75
2024/01/17 00:53:34;;;;;;;;;;;0.30;99.90;;;;;;5036174;28;19925;-75
2024/01/17 00:55:59;;;;;;;;;;;0.30;99.90;;;;;;5031340;28;20456;-75
2024/01/17 00:58:25;;;;;;;;;;;0.50;99.90;;;;;;5037342;28;19921;-75
2024/01/17 01:00:50;;;;;;;;;;;0.70;99.90;;;;;;5049401;28;19929;-75
2024/01/17 01:03:16;;;;;;;;;;;0.30;99.90;;;;;;5052167;28;20011;-76
2024/01/17 01:05:41;;;;;;;;;;;0.50;99.90;;;;;;5053406;28;19928;-75
2024/01/17 01:08:07;;;;;;;;;;;0.40;99.90;;;;;;5052246;28;19920;-76
2024/01/17 01:10:32;;;;;;;;;;;0.40;99.90;;;;;;5051593;28;19921;-75
2024/01/17 01:12:58;;;;;;;;;;;0.40;99.90;;;;;;5038668;28;19963;-75
2024/01/17 01:15:23;;;;;;;;;;;0.40;99.90;;;;;;5039904;28;20303;-75
2024/01/17 01:17:50;;;;;;;;;;;1.20;99.90;;;;;;5049467;28;19921;-76
2024/01/17 01:20:15;;;;;;;;;;;0.40;99.90;;;;;;5055487;28;19931;-74
2024/01/17 01:22:41;;;;;;;;;;;0.40;99.90;;;;;;5053161;28;19920;-75
2024/01/17 01:25:06;;;;;;;;;;;0.40;99.90;;;;;;5052596;28;19921;-75
2024/01/17 01:27:32;;;;;;;;;;;0.40;99.90;;;;;;5053059;28;20295;-75
2024/01/17 01:29:58;;;;;;;;;;;0.40;99.90;;;;;;5049485;28;19920;-76
2024/01/17 01:32:24;;;;;;;;;;;0.40;99.90;;;;;;5054384;28;20326;-76
2024/01/17 01:34:49;;;;;;;;;;;0.40;99.90;;;;;;5053302;28;19927;-76
2024/01/17 01:37:15;;;;;;;;;;;2.20;99.90;;;;;;5071727;28;19920;-76
2024/01/17 01:39:40;;;;;;;;;;;0.40;99.90;;;;;;5067429;28;20354;-76
2024/01/17 01:42:06;;;;;;;;;;;-0.90;99.90;;;;;;5066916;28;20666;-76
2024/01/17 01:44:31;;;;;;;;;;;0.40;99.90;;;;;;5060602;28;19963;-77
2024/01/17 01:46:57;;;;;;;;;;;0.40;99.90;;;;;;5091958;28;20022;-76
2024/01/17 01:49:23;;;;;;;;;;;0.40;99.90;;;;;;5054976;28;19955;-77
2024/01/17 01:51:50;;;;;;;;;;;0.40;99.90;;;;;;5072369;28;19920;-77
2024/01/17 01:54:16;;;;;;;;;;;0.40;99.90;;;;;;5059865;28;19927;-77
2024/01/17 01:56:42;;;;;;;;;;;2.00;99.90;;;;;;5040660;28;19925;-77
2024/01/17 01:59:08;;;;;;;;;;;0.40;99.90;;;;;;5058653;28;20270;-77
2024/01/17 02:01:34;;;;;;;;;;;0.40;99.90;;;;;;5052402;28;19994;-77
2024/01/17 02:04:01;;;;;;;;;;;0.40;99.90;;;;;;5070718;28;19916;-77
2024/01/17 02:06:31;;;;;;;;;;;0.70;99.90;;;;;;5054339;28;19927;-77
2024/01/17 02:08:57;;;;;;;;;;;0.40;99.90;;;;;;5070646;28;20007;-77
2024/01/17 02:11:23;;;;;;;;;;;0.40;99.90;;;;;;5071780;28;20291;-77
2024/01/17 02:13:49;;;;;;;;;;;0.40;99.90;;;;;;5044470;28;19982;-78
2024/01/17 02:16:15;;;;;;;;;;;1.70;99.90;;;;;;5054486;28;19966;-78
2024/01/17 02:18:42;;;;;;;;;;;0.40;99.90;;;;;;5048683;28;19920;-78
2024/01/17 02:21:08;;;;;;;;;;;0.40;99.90;;;;;;5070640;28;19920;-77
2024/01/17 02:23:34;;;;;;;;;;;0.40;99.90;;;;;;5054835;28;19947;-77
2024/01/17 02:25:59;;;;;;;;;;;0.40;99.90;;;;;;5048986;28;19921;-78
2024/01/17 02:28:26;;;;;;;;;;;0.40;99.90;;;;;;5050296;28;20425;-78
2024/01/17 02:30:52;;;;;;;;;;;0.40;99.90;;;;;;5050674;28;19928;-77
2024/01/17 02:33:18;;;;;;;;;;;0.40;99.90;;;;;;5070282;28;20295;-76
2024/01/17 02:35:44;;;;;;;;;;;0.40;99.90;;;;;;5052865;28;20017;-77
2024/01/17 02:38:09;;;;;;;;;;;2.20;99.90;;;;;;5058483;28;20394;-77
2024/01/17 02:40:35;;;;;;;;;;;1.10;99.90;;;;;;5052222;28;20542;-77
2024/01/17 02:43:00;;;;;;;;;;;0.30;99.90;;;;;;5067116;28;19943;-77
2024/01/17 02:45:26;;;;;;;;;;;0.30;99.90;;;;;;5060156;28;19915;-77
2024/01/17 02:47:51;;;;;;;;;;;0.50;99.90;;;;;;5090222;28;19981;-78
2024/01/17 02:50:17;;;;;;;;;;;0.30;99.90;;;;;;5091714;28;20020;-77
2024/01/17 02:52:43;;;;;;;;;;;0.70;99.90;;;;;;5055149;28;20406;-77
2024/01/17 02:55:10;;;;;;;;;;;0.30;99.90;;;;;;5066047;28;19924;-77
2024/01/17 02:57:35;;;;;;;;;;;0.30;99.90;;;;;;5063172;28;19952;-77
2024/01/17 03:00:01;;;;;;;;;;;0.30;99.90;;;;;;5069139;28;20100;-77
2024/01/17 03:02:26;;;;;;;;;;;0.30;99.90;;;;;;5051424;28;20372;-76
2024/01/17 03:04:52;;;;;;;;;;;0.20;99.90;;;;;;5057037;28;20019;-75
2024/01/17 03:07:17;;;;;;;;;;;0.20;99.90;;;;;;5050963;28;19971;-75
2024/01/17 03:09:43;;;;;;;;;;;0.20;99.90;;;;;;5053103;28;20009;-75
2024/01/17 03:12:09;;;;;;;;;;;0.20;99.90;;;;;;5057755;28;19935;-75
2024/01/17 03:14:35;;;;;;;;;;;0.20;99.90;;;;;;5031870;28;19921;-75
2024/01/17 03:17:01;;;;;;;;;;;0.20;99.90;;;;;;5032940;28;20399;-74
2024/01/17 03:19:26;;;;;;;;;;;0.10;99.90;;;;;;5069803;28;19928;-75
2024/01/17 03:21:52;;;;;;;;;;;0.10;99.90;;;;;;5051428;28;20360;-75
2024/01/17 03:24:18;;;;;;;;;;;0.10;99.90;;;;;;5053087;28;20446;-75
2024/01/17 03:26:43;;;;;;;;;;;0.10;99.90;;;;;;5070019;28;19924;-75
2024/01/17 03:29:09;;;;;;;;;;;0.40;99.90;;;;;;5054819;28;20448;-75
2024/01/17 03:31:34;;;;;;;;;;;0.10;99.90;;;;;;5048494;28;19924;-75
2024/01/17 03:34:03;;;;;;;;;;;1.10;99.90;;;;;;5051753;28;19920;-75
2024/01/17 03:36:29;;;;;;;;;;;0.10;99.90;;;;;;5051402;28;19924;-75
2024/01/17 03:38:55;;;;;;;;;;;0.10;99.90;;;;;;5068368;28;19920;-75
2024/01/17 03:41:20;;;;;;;;;;;0.10;99.90;;;;;;5061543;28;19974;-75
2024/01/17 03:43:46;;;;;;;;;;;0.20;99.90;;;;;;5043167;28;19928;-75
2024/01/17 03:46:12;;;;;;;;;;;0.00;99.90;;;;;;5068698;28;20271;-75
2024/01/17 03:48:37;;;;;;;;;;;0.00;99.90;;;;;;5052186;28;19920;-75
2024/01/17 03:51:03;;;;;;;;;;;0.40;99.90;;;;;;5069177;28;19929;-75
2024/01/17 03:53:28;;;;;;;;;;;0.00;99.90;;;;;;5046578;28;19969;-75
2024/01/17 03:55:54;;;;;;;;;;;0.10;99.90;;;;;;5050027;28;19920;-75
2024/01/17 03:58:20;;;;;;;;;;;0.10;99.90;;;;;;5070055;28;19925;-74
2024/01/17 04:00:45;;;;;;;;;;;0.00;99.90;;;;;;5051398;28;19927;-76
2024/01/17 04:03:12;;;;;;;;;;;0.10;99.90;;;;;;5066455;28;19998;-75
2024/01/17 04:05:38;;;;;;;;;;;1.10;99.90;;;;;;5036469;28;19920;-76
2024/01/17 04:08:04;;;;;;;;;;;1.30;99.90;;;;;;5032247;28;19935;-75
2024/01/17 04:10:29;;;;;;;;;;;0.00;99.90;;;;;;5062745;28;19975;-75
2024/01/17 04:12:55;;;;;;;;;;;0.00;99.90;;;;;;5053159;28;19964;-75
2024/01/17 04:15:21;;;;;;;;;;;0.00;99.90;;;;;;5036596;28;19927;-75
2024/01/17 04:17:46;;;;;;;;;;;0.00;99.90;;;;;;5046044;28;19921;-76
2024/01/17 04:20:12;;;;;;;;;;;0.00;99.90;;;;;;5044606;28;19985;-75
2024/01/17 04:22:37;;;;;;;;;;;-0.10;99.90;;;;;;5052175;28;19924;-75
2024/01/17 04:25:03;;;;;;;;;;;-0.10;99.90;;;;;;5050546;28;20108;-75
2024/01/17 04:27:28;;;;;;;;;;;-0.10;99.90;;;;;;5052832;28;19946;-75
2024/01/17 04:29:54;;;;;;;;;;;0.60;99.90;;;;;;5069531;28;19920;-75
2024/01/17 04:32:19;;;;;;;;;;;-0.20;99.90;;;;;;5069665;28;19928;-76
2024/01/17 04:34:45;;;;;;;;;;;-0.20;99.90;;;;;;5067717;28;19920;-76
2024/01/17 04:37:10;;;;;;;;;;;-0.20;99.90;;;;;;5051942;28;20006;-76
2024/01/17 04:39:36;;;;;;;;;;;0.60;99.90;;;;;;5050543;28;20465;-75
2024/01/17 04:42:02;;;;;;;;;;;-0.20;99.90;;;;;;5069269;28;19920;-74
2024/01/17 04:44:30;;;;;;;;;;;-0.20;99.90;;;;;;5064904;28;19920;-76
2024/01/17 04:46:57;;;;;;;;;;;-0.30;99.90;;;;;;5046694;28;19917;-75
2024/01/17 04:49:26;;;;;;;;;;;0.10;99.90;;;;;;5049662;28;20011;-75
2024/01/17 04:51:52;;;;;;;;;;;-0.30;99.90;;;;;;5031867;28;19921;-76
2024/01/17 04:54:18;;;;;;;;;;;-0.30;99.90;;;;;;5040017;28;19928;-75
2024/01/17 04:56:43;;;;;;;;;;;-0.30;99.90;;;;;;5051513;28;19924;-75
2024/01/17 04:59:09;;;;;;;;;;;-0.30;99.90;;;;;;5049651;28;19928;-74
2024/01/17 05:01:35;;;;;;;;;;;-0.30;99.90;;;;;;5049190;28;20208;-74
2024/01/17 05:04:00;;;;;;;;;;;-0.40;99.90;;;;;;5066158;28;19926;-75
2024/01/17 05:06:26;;;;;;;;;;;-0.30;99.90;;;;;;5067412;28;19926;-75
2024/01/17 05:08:52;;;;;;;;;;;-0.30;99.90;;;;;;5067904;28;19920;-75
2024/01/17 05:11:21;;;;;;;;;;;-0.30;99.90;;;;;;5050686;28;19920;-75
2024/01/17 05:13:47;;;;;;;;;;;-0.40;99.90;;;;;;5045457;28;20219;-75
2024/01/17 05:16:12;;;;;;;;;;;-0.40;99.90;;;;;;5051428;28;20252;-75
2024/01/17 05:18:39;;;;;;;;;;;-0.50;99.90;;;;;;5044198;28;19928;-76
2024/01/17 05:21:05;;;;;;;;;;;-0.40;99.90;;;;;;5030364;28;19940;-74
2024/01/17 05:23:30;;;;;;;;;;;-0.40;99.90;;;;;;5040438;28;20030;-75
2024/01/17 05:25:56;;;;;;;;;;;-0.40;99.90;;;;;;5054321;28;20007;-76
2024/01/17 05:28:22;;;;;;;;;;;-0.40;99.90;;;;;;5031952;28;19921;-75
2024/01/17 05:30:47;;;;;;;;;;;-0.40;99.90;;;;;;5049907;28;19943;-76
2024/01/17 05:33:13;;;;;;;;;;;-0.40;99.90;;;;;;5052529;28;19935;-76
2024/01/17 05:35:39;;;;;;;;;;;-0.40;99.90;;;;;;5059387;28;20410;-76
2024/01/17 05:38:04;;;;;;;;;;;-0.40;99.90;;;;;;5056671;28;20156;-75
2024/01/17 05:40:30;;;;;;;;;;;-0.40;99.90;;;;;;5039171;28;19973;-76
2024/01/17 05:42:56;;;;;;;;;;;-0.40;99.90;;;;;;5053489;28;19999;-76
2024/01/17 05:45:21;;;;;;;;;;;-0.50;99.90;;;;;;5046583;28;20361;-77
2024/01/17 05:47:47;;;;;;;;;;;-0.50;99.90;;;;;;5051556;28;20380;-76
2024/01/17 05:50:12;;;;;;;;;;;-0.50;99.90;;;;;;5034017;28;19925;-76
2024/01/17 05:52:39;;;;;;;;;;;-0.50;99.90;;;;;;5036640;28;19928;-76
2024/01/17 05:55:06;;;;;;;;;;;-0.50;99.90;;;;;;5078362;28;19932;-76
2024/01/17 05:57:31;;;;;;;;;;;-0.50;99.90;;;;;;5053843;28;20364;-77
2024/01/17 05:59:57;;;;;;;;;;;-0.50;99.90;;;;;;5053467;28;19920;-76
2024/01/17 06:02:22;;;;;;;;;;;-0.60;99.90;;;;;;5051313;28;19920;-76
2024/01/17 06:04:48;;;;;;;;;;;-0.60;99.90;;;;;;5039075;28;19920;-76
2024/01/17 06:07:14;;;;;;;;;;;-0.60;99.90;;;;;;5035909;28;20653;-75
2024/01/17 06:09:39;;;;;;;;;;;-0.50;99.90;;;;;;5071645;28;20012;-76
2024/01/17 06:12:05;;;;;;;;;;;-0.60;99.90;;;;;;5063108;28;20011;-76
2024/01/17 06:14:32;;;;;;;;;;;-0.60;99.90;;;;;;5047245;28;19928;-76
2024/01/17 06:16:57;;;;;;;;;;;-0.60;99.90;;;;;;5050410;28;20425;-76
2024/01/17 06:19:23;;;;;;;;;;;-0.70;99.90;;;;;;5053759;28;19970;-76
2024/01/17 06:21:48;;;;;;;;;;;-0.70;99.90;;;;;;5052535;28;19920;-77
2024/01/17 06:24:14;;;;;;;;;;;-0.70;99.90;;;;;;5052566;28;19924;-76
2024/01/17 06:26:40;;;;;;;;;;;-0.70;99.90;;;;;;5053293;28;19970;-76
2024/01/17 06:29:05;;;;;;;;;;;-0.70;99.90;;;;;;5052814;28;20438;-77
2024/01/17 06:31:31;;;;;;;;;;;-0.70;99.90;;;;;;5070755;28;19920;-77
2024/01/17 06:33:57;;;;;;;;;;;-0.80;99.90;;;;;;5068697;28;20011;-77
2024/01/17 06:36:24;;;;;;;;;;;-0.80;99.90;;;;;;5035429;28;19951;-77
2024/01/17 06:38:50;;;;;;;;;;;-0.80;99.90;;;;;;5046796;28;20311;-77
2024/01/17 06:41:17;;;;;;;;;;;-0.80;99.90;;;;;;5046467;28;20395;-77
2024/01/17 06:43:43;;;;;;;;;;;-0.80;99.90;;;;;;5041267;28;20007;-76
2024/01/17 06:46:08;;;;;;;;;;;-0.80;99.90;;;;;;5066376;28;19924;-77
2024/01/17 06:48:34;;;;;;;;;;;-0.80;99.90;;;;;;5051766;28;19974;-77
2024/01/17 06:50:59;;;;;;;;;;;-0.80;99.90;;;;;;5052706;28;19924;-76
2024/01/17 06:53:25;;;;;;;;;;;-0.80;99.90;;;;;;5049577;28;20316;-76
2024/01/17 06:55:50;;;;;;;;;;;-0.80;99.90;;;;;;5041736;28;19927;-76
2024/01/17 06:58:16;;;;;;;;;;;-0.80;99.90;;;;;;5064075;28;19920;-76
2024/01/17 07:00:45;;;;;;;;;;;-0.80;99.90;;;;;;5049076;28;19956;-77
2024/01/17 07:03:10;;;;;;;;;;;-0.80;99.90;;;;;;5051009;28;19927;-76
2024/01/17 07:05:37;;;;;;;;;;;-0.80;99.90;;;;;;5051253;28;19921;-77
2024/01/17 07:08:02;;;;;;;;;;;-0.80;99.90;;;;;;5051893;28;19920;-77
2024/01/17 07:10:28;;;;;;;;;;;-0.90;99.90;;;;;;5047360;28;19927;-76
2024/01/17 07:12:54;;;;;;;;;;;-0.80;99.90;;;;;;5053385;28;19921;-76
2024/01/17 07:15:19;;;;;;;;;;;-0.90;99.90;;;;;;5032220;28;19921;-77
2024/01/17 07:17:45;;;;;;;;;;;-0.90;99.90;;;;;;5038321;28;20283;-76
2024/01/17 07:20:11;;;;;;;;;;;-0.90;99.90;;;;;;5051353;28;19966;-75
2024/01/17 07:22:44;;;;;;;;;;;-0.90;99.90;;;;;;5035871;28;20009;-76
2024/01/17 07:25:10;;;;;;;;;;;-0.90;99.90;;;;;;5052434;28;19920;-77
2024/01/17 07:27:40;;;;;;;;;;;-0.90;99.90;;;;;;5052055;28;19927;-78
2024/01/17 07:30:05;;;;;;;;;;;-1.00;99.90;;;;;;5047593;28;19925;-77
2024/01/17 07:32:31;;;;;;;;;;;-1.00;99.90;;;;;;5031997;28;19928;-76
2024/01/17 07:34:57;;;;;;;;;;;-1.00;99.90;;;;;;5031107;28;19920;-77
2024/01/17 07:37:22;;;;;;;;;;;-1.00;99.90;;;;;;5055385;28;19975;-76
2024/01/17 07:39:48;;;;;;;;;;;-1.00;99.90;;;;;;5032632;28;19999;-76
2024/01/17 07:42:14;;;;;;;;;;;-1.00;99.90;;;;;;5031634;28;19932;-76
2024/01/17 07:44:40;;;;;;;;;;;-1.00;99.90;;;;;;5050295;28;19931;-77
2024/01/17 07:47:05;;;;;;;;;;;-1.00;99.90;;;;;;5048334;28;19916;-75
2024/01/17 07:49:35;;;;;;;;;;;-1.00;99.90;;;;;;5045130;28;19921;-76
2024/01/17 07:52:01;;;;;;;;;;;-1.00;99.90;;;;;;5059654;28;19981;-76
2024/01/17 07:54:29;;;;;;;;;;;-1.00;99.90;;;;;;5066497;28;19975;-76
2024/01/17 07:56:55;;;;;;;;;;;-1.00;99.90;;;;;;5049922;28;19975;-76
2024/01/17 07:59:20;;;;;;;;;;;-1.00;99.90;;;;;;5050919;28;20376;-76
2024/01/17 08:01:49;;;;;;;;;;;-1.00;99.90;;;;;;5069079;28;19921;-74
2024/01/17 08:04:16;;;;;;;;;;;-1.00;99.90;;;;;;5048112;28;19921;-75
2024/01/17 08:06:43;;;;;;;;;;;-1.00;99.90;;;;;;5050417;28;20284;-76
2024/01/17 08:09:20;;;;;;;;;;;-1.00;99.90;;;;;;5068678;28;20439;-75
2024/01/17 08:11:53;;;;;;;;;;;-1.00;99.90;;;;;;5038278;28;19920;-74
2024/01/17 08:14:19;;;;;;;;;;;-1.00;99.90;;;;;;5052952;28;19920;-73
2024/01/17 08:16:45;;;;;;;;;;;-0.80;99.90;;;;;;5045479;28;20269;-74
2024/01/17 08:19:11;;;;;;;;;;;-0.80;99.90;;;;;;5030572;28;19950;-74
2024/01/17 08:21:36;;;;;;;;;;;-1.00;99.90;;;;;;5049132;28;20007;-74
2024/01/17 08:24:02;;;;;;;;;;;-1.00;99.90;;;;;;5027164;28;20337;-73
2024/01/17 08:26:28;;;;;;;;;;;-1.10;99.90;;;;;;5030901;28;19925;-74
2024/01/17 08:28:54;;;;;;;;;;;-1.10;99.90;;;;;;5030199;28;19928;-74
2024/01/17 08:31:20;;;;;;;;;;;-1.10;99.90;;;;;;5029618;28;19921;-74
2024/01/17 08:33:45;;;;;;;;;;;-1.00;99.90;;;;;;5028377;28;19920;-77
2024/01/17 08:36:12;;;;;;;;;;;-1.00;99.90;;;;;;5048415;28;19921;-74
2024/01/17 08:38:37;;;;;;;;;;;-1.10;99.90;;;;;;5048628;28;20392;-74
2024/01/17 08:41:03;;;;;;;;;;;-1.00;99.90;;;;;;5030153;28;19947;-74
2024/01/17 08:43:29;;;;;;;;;;;-1.00;99.90;;;;;;5030910;28;19931;-75
2024/01/17 08:45:54;;;;;;;;;;;-1.00;99.90;;;;;;5028624;28;19974;-74
2024/01/17 08:48:20;;;;;;;;;;;-1.00;99.90;;;;;;5027482;28;20590;-74
2024/01/17 08:50:45;;;;;;;;;;;-0.50;99.90;;;;;;5028671;28;19965;-74
2024/01/17 08:53:11;;;;;;;;;;;-1.00;99.90;;;;;;5028895;28;20017;-75
2024/01/17 08:55:36;;;;;;;;;;;-1.00;99.90;;;;;;5027843;28;20312;-75
2024/01/17 08:58:02;;;;;;;;;;;-1.00;99.90;;;;;;5027705;28;19921;-74
2024/01/17 09:00:27;;;;;;;;;;;-0.90;99.90;;;;;;5021289;28;19924;-74
2024/01/17 09:02:53;;;;;;;;;;;-0.90;99.90;;;;;;5048505;28;19925;-74
2024/01/17 09:05:20;;;;;;;;;;;-0.90;99.90;;;;;;5046527;28;19924;-74
2024/01/17 09:07:49;;;;;;;;;;;-0.90;99.90;;;;;;5029940;28;20015;-74
2024/01/17 09:10:16;;;;;;;;;;;-0.80;99.90;;;;;;5018135;28;19976;-74
2024/01/17 09:12:42;;;;;;;;;;;-0.80;99.90;;;;;;5030556;28;20402;-74
2024/01/17 09:15:07;;;;;;;;;;;-0.70;99.90;;;;;;5050699;28;19975;-73
2024/01/17 09:17:34;;;;;;;;;;;-0.70;99.90;;;;;;5048190;28;20015;-73
2024/01/17 09:20:00;;;;;;;;;;;-0.80;99.90;;;;;;5050884;28;19974;-72
2024/01/17 09:22:26;;;;;;;;;;;-0.90;99.90;;;;;;5051789;28;19920;-72
2024/01/17 09:24:51;;;;;;;;;;;-0.60;99.90;;;;;;5040638;28;19927;-72
2024/01/17 09:27:17;;;;;;;;;;;-0.60;99.90;;;;;;5041637;28;19921;-73
2024/01/17 09:29:44;;;;;;;;;;;-0.70;99.90;;;;;;5048768;28;19925;-73
2024/01/17 09:32:09;;;;;;;;;;;-0.70;99.90;;;;;;5048792;28;20357;-73
2024/01/17 09:34:36;;;;;;;;;;;-0.50;99.90;;;;;;5040141;28;19921;-73
2024/01/17 09:37:02;;;;;;;;;;;-0.50;99.90;;;;;;5040194;28;19943;-73
2024/01/17 09:39:29;;;;;;;;;;;-0.50;99.90;;;;;;5048960;28;19924;-71
2024/01/17 09:41:55;;;;;;;;;;;-0.40;99.90;;;;;;5038174;28;19920;-73
2024/01/17 09:44:20;;;;;;;;;;;-0.40;99.90;;;;;;5049241;28;19943;-72
2024/01/17 09:46:46;;;;;;;;;;;-0.40;99.90;;;;;;5049229;28;19927;-72
2024/01/17 09:49:12;;;;;;;;;;;-0.40;99.90;;;;;;5045604;28;19993;-73
2024/01/17 09:51:38;;;;;;;;;;;-0.40;99.90;;;;;;5049288;28;19916;-73
2024/01/17 09:54:04;;;;;;;;;;;-0.40;99.90;;;;;;5034541;28;19935;-73
2024/01/17 09:56:31;;;;;;;;;;;-0.30;99.90;;;;;;5051247;28;19982;-74
2024/01/17 09:58:58;;;;;;;;;;;-0.30;99.90;;;;;;5048568;28;20388;-73
2024/01/17 10:01:25;;;;;;;;;;;-0.20;99.90;;;;;;5048800;28;19924;-73
2024/01/17 10:03:54;;;;;;;;;;;0.00;99.90;;;;;;5044962;28;19940;-73
2024/01/17 10:06:20;;;;;;;;;;;-0.20;99.90;;;;;;5048187;28;20000;-73
2024/01/17 10:08:47;;;;;;;;;;;-0.20;99.90;;;;;;5033682;28;19921;-73
2024/01/17 10:11:13;;;;;;;;;;;-0.10;99.90;;;;;;5030703;28;20080;-73
2024/01/17 10:13:38;;;;;;;;;;;-0.10;99.90;;;;;;5046710;28;19928;-74
2024/01/17 10:16:04;;;;;;;;;;;-0.10;99.90;;;;;;5037179;28;20686;-74
2024/01/17 10:18:31;;;;;;;;;;;-0.10;99.90;;;;;;5032320;28;19929;-73
2024/01/17 10:20:56;;;;;;;;;;;-0.10;99.90;;;;;;5032328;28;19921;-72
2024/01/17 10:23:24;;;;;;;;;;;-0.10;99.90;;;;;;5033368;28;20332;-73
2024/01/17 10:25:51;;;;;;;;;;;-0.30;99.90;;;;;;5048489;28;20569;-74
2024/01/17 10:28:16;;;;;;;;;;;-0.10;99.90;;;;;;5032926;28;20387;-73
2024/01/17 10:30:42;;;;;;;;;;;-0.10;99.90;;;;;;5047670;28;19927;-73
2024/01/17 10:33:08;;;;;;;;;;;-0.10;99.90;;;;;;5032497;28;20042;-73
2024/01/17 10:35:33;;;;;;;;;;;-0.10;99.90;;;;;;5033014;28;20371;-73
2024/01/17 10:37:59;;;;;;;;;;;-0.10;99.90;;;;;;5031263;28;19971;-74
2024/01/17 10:40:25;;;;;;;;;;;-0.10;99.90;;;;;;5033438;28;20530;-74
2024/01/17 10:43:04;;;;;;;;;;;-0.10;99.90;;;;;;5032839;28;20265;-73
2024/01/17 10:45:33;;;;;;;;;;;-0.10;99.90;;;;;;5031021;28;20280;-73
2024/01/17 10:47:59;;;;;;;;;;;0.20;99.90;;;;;;5032602;28;20364;-74
2024/01/17 10:50:24;;;;;;;;;;;-0.10;99.90;;;;;;5025911;28;19927;-74
2024/01/17 10:52:53;;;;;;;;;;;-0.10;99.90;;;;;;5042500;28;19931;-74
2024/01/17 10:55:21;;;;;;;;;;;0.00;99.90;;;;;;5029352;28;19928;-74
2024/01/17 10:57:49;;;;;;;;;;;0.00;99.90;;;;;;5013439;28;19921;-74
2024/01/17 11:00:17;;;;;;;;;;;0.10;99.90;;;;;;5028813;28;19917;-74
2024/01/17 11:02:43;;;;;;;;;;;0.10;99.90;;;;;;5031713;28;19920;-75
2024/01/17 11:05:11;;;;;;;;;;;0.10;99.90;;;;;;5031399;28;19920;-73
2024/01/17 11:07:37;;;;;;;;;;;0.20;99.90;;;;;;5022164;28;19921;-73
2024/01/17 11:10:04;;;;;;;;;;;0.20;99.90;;;;;;5049213;28;20368;-74
2024/01/17 11:12:33;;;;;;;;;;;0.20;99.90;;;;;;5031904;28;19916;-73
2024/01/17 11:15:03;;;;;;;;;;;0.20;99.90;;;;;;5011894;28;20000;-74
2024/01/17 11:17:31;;;;;;;;;;;0.20;99.90;;;;;;5026685;28;19921;-73
2024/01/17 11:19:57;;;;;;;;;;;0.10;99.90;;;;;;5063434;28;19967;-74
2024/01/17 11:22:23;;;;;;;;;;;0.20;99.90;;;;;;5052501;28;19928;-73
2024/01/17 11:25:10;;;;;;;;;;;0.40;99.90;;;;;;5051963;28;19916;-73
2024/01/17 11:27:49;;;;;;;;;;;0.20;99.90;;;;;;5051715;28;19924;-73
2024/01/17 11:30:21;;;;;;;;;;;0.30;99.90;;;;;;5051498;28;20174;-73
2024/01/17 11:32:57;;;;;;;;;;;0.30;99.90;;;;;;5051876;28;20372;-73
2024/01/17 11:35:42;;;;;;;;;;;0.30;99.90;;;;;;5051427;28;20322;-74
2024/01/17 11:38:13;;;;;;;;;;;0.30;99.90;;;;;;5061717;28;19928;-74
2024/01/17 11:40:40;;;;;;;;;;;0.30;99.90;;;;;;5067358;28;19920;-74
2024/01/17 11:43:06;;;;;;;;;;;0.30;99.90;;;;;;5050795;28;20336;-73
2024/01/17 11:45:32;;;;;;;;;;;0.30;99.90;;;;;;5048241;28;19927;-72
2024/01/17 11:48:10;;;;;;;;;;;0.30;99.90;;;;;;5067356;28;19924;-73
2024/01/17 11:50:37;;;;;;;;;;;0.30;99.90;;;;;;5046000;28;20363;-74
2024/01/17 11:53:03;;;;;;;;;;;0.30;99.90;;;;;;5036728;28;20299;-73
2024/01/17 11:55:31;;;;;;;;;;;0.30;99.90;;;;;;5059040;28;19920;-73
2024/01/17 11:57:59;;;;;;;;;;;0.30;99.90;;;;;;5049933;28;19920;-73
2024/01/17 12:00:25;;;;;;;;;;;0.30;99.90;;;;;;5039665;28;19923;-73
2024/01/17 12:02:50;;;;;;;;;;;0.80;99.90;;;;;;5048707;28;19928;-73
2024/01/17 12:05:16;;;;;;;;;;;0.30;99.90;;;;;;5065628;28;20023;-73
2024/01/17 12:07:42;;;;;;;;;;;0.30;99.90;;;;;;5044969;28;19917;-73
2024/01/17 12:10:11;;;;;;;;;;;0.30;99.90;;;;;;5047375;28;19920;-73
2024/01/17 12:12:42;;;;;;;;;;;0.30;99.90;;;;;;5049856;28;19932;-73
2024/01/17 12:15:09;;;;;;;;;;;0.30;99.90;;;;;;5046973;28;19926;-72
2024/01/17 12:17:38;;;;;;;;;;;0.30;99.90;;;;;;5048962;28;19943;-71
2024/01/17 12:20:08;;;;;;;;;;;0.30;99.90;;;;;;5042819;28;19924;-74
2024/01/17 12:22:34;;;;;;;;;;;0.40;99.90;;;;;;5039816;28;19947;-75
2024/01/17 12:25:00;;;;;;;;;;;0.40;99.90;;;;;;5036312;28;20367;-75
2024/01/17 12:27:30;;;;;;;;;;;0.40;99.90;;;;;;5049074;28;19928;-73
2024/01/17 12:29:57;;;;;;;;;;;0.50;99.90;;;;;;5040214;28;20244;-75
2024/01/17 12:32:23;;;;;;;;;;;0.60;99.90;;;;;;5044823;28;19924;-73
2024/01/17 12:34:49;;;;;;;;;;;0.60;99.90;;;;;;5038972;28;20273;-72
2024/01/17 12:37:15;;;;;;;;;;;0.60;99.90;;;;;;5043737;28;19925;-73
2024/01/17 12:39:41;;;;;;;;;;;0.60;99.90;;;;;;5048352;28;19939;-74
2024/01/17 12:42:06;;;;;;;;;;;0.70;99.90;;;;;;5051856;28;19924;-75
2024/01/17 12:44:32;;;;;;;;;;;0.70;99.90;;;;;;5051500;28;20406;-76
2024/01/17 12:46:58;;;;;;;;;;;0.70;99.90;;;;;;5070214;28;19927;-74
2024/01/17 12:49:23;;;;;;;;;;;0.80;99.90;;;;;;5051265;28;19920;-75
2024/01/17 12:51:49;;;;;;;;;;;0.80;99.90;;;;;;5044458;28;20384;-75
2024/01/17 12:54:17;;;;;;;;;;;0.80;99.90;;;;;;5048166;28;20010;-73
2024/01/17 12:56:43;;;;;;;;;;;0.80;99.90;;;;;;5060409;28;19921;-75
2024/01/17 12:59:09;;;;;;;;;;;0.80;99.90;;;;;;5053710;28;19978;-76
2024/01/17 13:01:43;;;;;;;;;;;1.40;99.90;;;;;;5041848;28;20376;-77
2024/01/17 13:04:09;;;;;;;;;;;0.80;99.90;;;;;;5056134;28;20019;-75
2024/01/17 13:06:50;;;;;;;;;;;0.90;99.90;;;;;;5047277;28;20019;-76
2024/01/17 13:09:17;;;;;;;;;;;0.90;99.90;;;;;;5045477;28;19931;-74
2024/01/17 13:12:09;;;;;;;;;;;0.90;99.90;;;;;;5046752;28;19924;-75
2024/01/17 13:14:35;;;;;;;;;;;0.90;99.90;;;;;;5059626;28;19920;-75
2024/01/17 13:17:01;;;;;;;;;;;0.90;99.90;;;;;;5051111;28;19924;-75
2024/01/17 13:19:28;;;;;;;;;;;0.90;99.90;;;;;;5053102;28;20364;-76
2024/01/17 13:21:54;;;;;;;;;;;0.80;99.90;;;;;;5065882;28;19920;-75
2024/01/17 13:24:19;;;;;;;;;;;1.40;99.90;;;;;;5070152;28;19977;-75
2024/01/17 13:26:45;;;;;;;;;;;0.80;99.90;;;;;;5053636;28;20041;-75
2024/01/17 13:29:12;;;;;;;;;;;0.90;99.90;;;;;;5069759;28;19920;-76
2024/01/17 13:31:38;;;;;;;;;;;0.90;99.90;;;;;;5059112;28;20334;-77
2024/01/17 13:34:07;;;;;;;;;;;0.90;99.90;;;;;;5044576;28;19924;-75
2024/01/17 13:36:33;;;;;;;;;;;0.90;99.90;;;;;;5050410;28;19920;-76
2024/01/17 13:38:59;;;;;;;;;;;0.90;99.90;;;;;;5062677;28;19935;-74
2024/01/17 13:41:26;;;;;;;;;;;0.90;99.90;;;;;;5051208;28;19945;-77
2024/01/17 13:43:53;;;;;;;;;;;0.90;99.90;;;;;;5053733;28;19925;-76
2024/01/17 13:46:18;;;;;;;;;;;0.90;99.90;;;;;;5065489;28;19974;-75
2024/01/17 13:48:46;;;;;;;;;;;1.00;99.90;;;;;;5054091;28;19920;-77
2024/01/17 13:51:12;;;;;;;;;;;1.00;99.90;;;;;;5053440;28;19920;-75
2024/01/17 13:53:41;;;;;;;;;;;1.10;99.90;;;;;;5049175;28;19927;-77
2024/01/17 13:56:09;;;;;;;;;;;2.00;99.90;;;;;;5042937;28;19932;-75
2024/01/17 13:58:34;;;;;;;;;;;1.00;99.90;;;;;;5046823;28;19920;-75
2024/01/17 14:01:04;;;;;;;;;;;0.90;99.90;;;;;;5043316;28;19929;-77
2024/01/17 14:03:30;;;;;;;;;;;0.90;99.90;;;;;;5066498;28;19924;-75
2024/01/17 14:05:55;;;;;;;;;;;0.90;99.90;;;;;;5065257;28;20360;-77
2024/01/17 14:08:21;;;;;;;;;;;0.90;99.90;;;;;;5048947;28;20356;-76
2024/01/17 14:10:46;;;;;;;;;;;0.90;99.90;;;;;;5045555;28;19920;-78
2024/01/17 14:13:13;;;;;;;;;;;0.90;99.90;;;;;;5051394;28;20184;-76
2024/01/17 14:15:39;;;;;;;;;;;0.90;99.90;;;;;;5048494;28;19959;-77
2024/01/17 14:18:05;;;;;;;;;;;0.90;99.90;;;;;;5040533;28;19925;-76